Portada
METAR-TAF:

METAR-TAF

Aeroports :

Tsingtao, Xina

latitud: 36-04N, longitud: 120-20E, altitud: 77 m

Observació

L'informe es va fer fa 32 minuts, a les 07:00 UTC
Vent 8 kt del Sud/Sud-Oest, variant entre Sud/Sud-Est i Sud-Oest
Temperatura 28°C
Humitat 35%
Pressió 1013 hPa
Visibilitat 10 km o més
sense núvols per sota de 1500 mi sense presència de cumulonimbus.

METAR: ZSQD 180700Z 20004MPS 160V230 CAVOK 28/11 Q1013 NOSIG

Hora: 15:32 (07:32 UTC)

Pronòstic

L'informe es va fer fa 4 hores i 28 minuts, a les 03:04 UTC
Pronòstic vàlid del 18 a les 06 UTC al 19 a les 06 UTC
Vent 10 kt del Sud
Visibilitat 10 km o més
sense núvols per sota de 1500 mi sense presència de cumulonimbus.
Evolucionant progressivament
l' 18 a les 21 UTC al 18 a les 22 UTC
Vent 6 kt del Nord/Nord-Oest

TAF: ZSQD 180304Z 1806/1906 19005MPS CAVOK TX28/1806Z TN14/1821Z BECMG 1821/1822 33003MPS

Observacions i pronòstics meteorològics de més de 4000 aeroports (METAR i TAF).

Les estacions disponibles són els punts grocs i vermells al mapa.

Posi el ratolí al punt desitjat per veure el nom de l'estació.

Feu clic per veure les observacions i els pronòstics meteorològics.

Per canviar el mapa: feu clic els botons verds amb una creu de color negre per apropar; al botó verd amb un guió per allunyar la imatge; o en les fletxes verdes per a mapes adjacents.


METAR-TAF: